sensor_id;sensor_type;location;lat;lon;timestamp;pressure;altitude;pressure_sealevel;temperature;humidity
35647;BME280;28680;45.642;13.756;2023-02-02T00:01:28;101703.41;;;6.04;100.00
35647;BME280;28680;45.642;13.756;2023-02-02T00:03:54;101704.56;;;5.97;100.00
35647;BME280;28680;45.642;13.756;2023-02-02T00:06:24;101694.44;;;5.89;100.00
35647;BME280;28680;45.642;13.756;2023-02-02T00:08:50;101694.44;;;5.89;100.00
35647;BME280;28680;45.642;13.756;2023-02-02T00:11:17;101693.16;;;5.79;100.00
35647;BME280;28680;45.642;13.756;2023-02-02T00:13:44;101689.19;;;5.70;100.00
35647;BME280;28680;45.642;13.756;2023-02-02T00:19:15;101692.31;;;5.58;100.00
35647;BME280;28680;45.642;13.756;2023-02-02T00:21:42;101686.19;;;5.59;100.00
35647;BME280;28680;45.642;13.756;2023-02-02T00:24:10;101689.00;;;5.54;100.00
35647;BME280;28680;45.642;13.756;2023-02-02T00:26:38;101681.97;;;5.56;100.00
35647;BME280;28680;45.642;13.756;2023-02-02T00:29:06;101686.13;;;5.60;100.00
35647;BME280;28680;45.642;13.756;2023-02-02T00:31:33;101687.19;;;5.56;100.00
35647;BME280;28680;45.642;13.756;2023-02-02T00:33:59;101684.63;;;5.55;100.00
35647;BME280;28680;45.642;13.756;2023-02-02T00:36:25;101685.63;;;5.52;100.00
35647;BME280;28680;45.642;13.756;2023-02-02T00:38:51;101687.19;;;5.56;100.00
35647;BME280;28680;45.642;13.756;2023-02-02T00:41:18;101681.91;;;5.58;100.00
35647;BME280;28680;45.642;13.756;2023-02-02T00:43:44;101690.25;;;5.66;100.00
35647;BME280;28680;45.642;13.756;2023-02-02T00:46:30;101683.81;;;5.75;100.00
35647;BME280;28680;45.642;13.756;2023-02-02T00:48:56;101683.66;;;5.78;100.00
35647;BME280;28680;45.642;13.756;2023-02-02T00:51:22;101679.03;;;5.84;100.00
35647;BME280;28680;45.642;13.756;2023-02-02T00:53:48;101688.28;;;5.71;100.00
35647;BME280;28680;45.642;13.756;2023-02-02T00:56:13;101686.97;;;5.40;100.00
35647;BME280;28680;45.642;13.756;2023-02-02T00:58:39;101687.72;;;5.22;100.00
35647;BME280;28680;45.642;13.756;2023-02-02T01:01:05;101692.69;;;5.28;100.00
35647;BME280;28680;45.642;13.756;2023-02-02T01:03:39;101691.22;;;5.43;100.00
35647;BME280;28680;45.642;13.756;2023-02-02T01:06:05;101707.25;;;5.32;100.00
35647;BME280;28680;45.642;13.756;2023-02-02T01:08:31;101694.97;;;5.36;100.00
35647;BME280;28680;45.642;13.756;2023-02-02T01:10:58;101691.84;;;5.48;100.00
35647;BME280;28680;45.642;13.756;2023-02-02T01:13:24;101688.34;;;5.49;100.00
35647;BME280;28680;45.642;13.756;2023-02-02T01:15:55;101690.94;;;5.49;100.00
35647;BME280;28680;45.642;13.756;2023-02-02T01:18:23;101689.13;;;5.51;100.00
35647;BME280;28680;45.642;13.756;2023-02-02T01:21:04;101695.44;;;5.45;100.00
35647;BME280;28680;45.642;13.756;2023-02-02T01:23:31;101691.31;;;5.40;100.00
35647;BME280;28680;45.642;13.756;2023-02-02T01:26:01;101690.50;;;5.39;100.00
35647;BME280;28680;45.642;13.756;2023-02-02T01:28:28;101689.56;;;5.40;100.00
35647;BME280;28680;45.642;13.756;2023-02-02T01:30:55;101689.44;;;5.43;100.00
35647;BME280;28680;45.642;13.756;2023-02-02T01:33:22;101690.94;;;5.49;100.00
35647;BME280;28680;45.642;13.756;2023-02-02T01:35:51;101695.31;;;5.49;100.00
35647;BME280;28680;45.642;13.756;2023-02-02T01:38:18;101700.66;;;5.23;100.00
35647;BME280;28680;45.642;13.756;2023-02-02T01:40:54;101710.22;;;5.23;100.00
35647;BME280;28680;45.642;13.756;2023-02-02T01:43:27;101701.53;;;5.24;100.00
35647;BME280;28680;45.642;13.756;2023-02-02T01:45:56;101694.81;;;5.18;100.00
35647;BME280;28680;45.642;13.756;2023-02-02T01:48:30;101693.53;;;5.28;100.00
35647;BME280;28680;45.642;13.756;2023-02-02T01:51:01;101700.91;;;5.39;100.00
35647;BME280;28680;45.642;13.756;2023-02-02T01:53:29;101700.38;;;5.52;100.00
35647;BME280;28680;45.642;13.756;2023-02-02T01:55:55;101687.69;;;5.64;100.00
35647;BME280;28680;45.642;13.756;2023-02-02T01:58:30;101688.63;;;5.63;100.00
35647;BME280;28680;45.642;13.756;2023-02-02T02:00:57;101695.44;;;5.66;100.00
35647;BME280;28680;45.642;13.756;2023-02-02T02:03:26;101689.13;;;5.72;100.00
35647;BME280;28680;45.642;13.756;2023-02-02T02:06:02;101691.06;;;5.66;100.00
35647;BME280;28680;45.642;13.756;2023-02-02T02:08:50;101694.59;;;5.65;100.00
35647;BME280;28680;45.642;13.756;2023-02-02T02:11:18;101694.84;;;5.59;100.00
35647;BME280;28680;45.642;13.756;2023-02-02T02:13:45;101684.09;;;5.67;100.00
35647;BME280;28680;45.642;13.756;2023-02-02T02:16:59;101689.31;;;5.67;100.00
35647;BME280;28680;45.642;13.756;2023-02-02T02:26:32;101704.88;;;5.69;100.00
35647;BME280;28680;45.642;13.756;2023-02-02T02:35:20;101707.34;;;5.51;100.00
35647;BME280;28680;45.642;13.756;2023-02-02T02:38:25;101707.03;;;5.59;100.00
35647;BME280;28680;45.642;13.756;2023-02-02T02:40:59;101708.41;;;5.68;100.00
35647;BME280;28680;45.642;13.756;2023-02-02T02:43:36;101701.44;;;5.68;100.00
35647;BME280;28680;45.642;13.756;2023-02-02T02:46:04;101689.13;;;5.72;100.00
35647;BME280;28680;45.642;13.756;2023-02-02T02:48:31;101682.94;;;5.74;100.00
35647;BME280;28680;45.642;13.756;2023-02-02T02:51:43;101703.00;;;5.72;100.00
35647;BME280;28680;45.642;13.756;2023-02-02T02:54:18;101684.56;;;5.77;100.00
35647;BME280;28680;45.642;13.756;2023-02-02T03:00:17;101687.38;;;5.72;100.00
35647;BME280;28680;45.642;13.756;2023-02-02T03:09:03;101677.72;;;5.74;100.00
35647;BME280;28680;45.642;13.756;2023-02-02T03:11:31;101681.50;;;5.67;100.00
35647;BME280;28680;45.642;13.756;2023-02-02T03:13:57;101672.00;;;5.66;100.00
35647;BME280;28680;45.642;13.756;2023-02-02T03:16:22;101676.50;;;5.62;100.00
35647;BME280;28680;45.642;13.756;2023-02-02T03:18:48;101680.59;;;5.68;100.00
35647;BME280;28680;45.642;13.756;2023-02-02T03:21:14;101692.78;;;5.68;100.00
35647;BME280;28680;45.642;13.756;2023-02-02T03:23:40;101670.84;;;5.73;100.00
35647;BME280;28680;45.642;13.756;2023-02-02T03:26:06;101672.56;;;5.73;100.00
35647;BME280;28680;45.642;13.756;2023-02-02T03:28:32;101684.75;;;5.72;100.00
35647;BME280;28680;45.642;13.756;2023-02-02T03:30:59;101675.84;;;5.78;100.00
35647;BME280;28680;45.642;13.756;2023-02-02T03:33:26;101672.31;;;5.79;100.00
35647;BME280;28680;45.642;13.756;2023-02-02T03:35:52;101659.69;;;5.70;100.00
35647;BME280;28680;45.642;13.756;2023-02-02T03:38:18;101669.13;;;5.72;100.00
35647;BME280;28680;45.642;13.756;2023-02-02T03:40:44;101681.31;;;5.72;100.00
35647;BME280;28680;45.642;13.756;2023-02-02T03:43:10;101675.13;;;5.74;100.00
35647;BME280;28680;45.642;13.756;2023-02-02T03:45:36;101679.56;;;5.72;100.00
35647;BME280;28680;45.642;13.756;2023-02-02T03:48:04;101685.69;;;5.71;100.00
35647;BME280;28680;45.642;13.756;2023-02-02T03:50:30;101691.72;;;5.72;100.00
35647;BME280;28680;45.642;13.756;2023-02-02T03:52:56;101700.22;;;5.77;100.00
35647;BME280;28680;45.642;13.756;2023-02-02T03:55:22;101697.41;;;5.81;100.00
35647;BME280;28680;45.642;13.756;2023-02-02T03:57:47;101701.22;;;5.93;100.00
35647;BME280;28680;45.642;13.756;2023-02-02T04:00:14;101689.88;;;5.96;100.00
35647;BME280;28680;45.642;13.756;2023-02-02T04:02:40;101702.91;;;5.96;100.00
35647;BME280;28680;45.642;13.756;2023-02-02T04:05:06;101682.88;;;5.96;100.00
35647;BME280;28680;45.642;13.756;2023-02-02T04:07:31;101680.16;;;5.99;100.00
35647;BME280;28680;45.642;13.756;2023-02-02T04:09:57;101681.13;;;5.97;100.00
35647;BME280;28680;45.642;13.756;2023-02-02T04:12:24;101678.19;;;6.04;100.00
35647;BME280;28680;45.642;13.756;2023-02-02T04:14:50;101681.50;;;6.08;100.00
35647;BME280;28680;45.642;13.756;2023-02-02T04:17:16;101684.09;;;6.08;100.00
35647;BME280;28680;45.642;13.756;2023-02-02T04:19:41;101684.03;;;6.10;100.00
35647;BME280;28680;45.642;13.756;2023-02-02T04:22:07;101692.13;;;6.03;100.00
35647;BME280;28680;45.642;13.756;2023-02-02T04:24:33;101686.28;;;5.98;100.00
35647;BME280;28680;45.642;13.756;2023-02-02T04:26:59;101685.09;;;5.85;100.00
35647;BME280;28680;45.642;13.756;2023-02-02T04:29:25;101699.88;;;5.84;100.00
35647;BME280;28680;45.642;13.756;2023-02-02T04:31:51;101695.03;;;5.97;100.00
35647;BME280;28680;45.642;13.756;2023-02-02T04:34:17;101691.28;;;6.03;100.00
35647;BME280;28680;45.642;13.756;2023-02-02T04:36:43;101702.63;;;6.02;100.00
35647;BME280;28680;45.642;13.756;2023-02-02T04:39:11;101690.44;;;6.02;100.00
35647;BME280;28680;45.642;13.756;2023-02-02T04:41:36;101698.53;;;5.96;100.00
35647;BME280;28680;45.642;13.756;2023-02-02T04:44:02;101687.56;;;5.88;100.00
35647;BME280;28680;45.642;13.756;2023-02-02T04:46:28;101688.81;;;6.00;100.00
35647;BME280;28680;45.642;13.756;2023-02-02T04:48:54;101689.88;;;5.96;100.00
35647;BME280;28680;45.642;13.756;2023-02-02T04:51:20;101701.69;;;6.03;100.00
35647;BME280;28680;45.642;13.756;2023-02-02T04:53:46;101702.41;;;6.07;100.00
35647;BME280;28680;45.642;13.756;2023-02-02T04:56:16;101700.78;;;6.04;100.00
35647;BME280;28680;45.642;13.756;2023-02-02T04:58:43;101696.41;;;6.04;100.00
35647;BME280;28680;45.642;13.756;2023-02-02T05:01:14;101696.47;;;6.03;100.00
35647;BME280;28680;45.642;13.756;2023-02-02T05:03:40;101682.44;;;6.07;100.00
35647;BME280;28680;45.642;13.756;2023-02-02T05:06:06;101689.38;;;6.07;100.00
35647;BME280;28680;45.642;13.756;2023-02-02T05:08:33;101695.47;;;6.07;100.00
35647;BME280;28680;45.642;13.756;2023-02-02T05:11:00;101699.75;;;6.08;100.00
35647;BME280;28680;45.642;13.756;2023-02-02T05:13:27;101699.63;;;6.11;100.00
35647;BME280;28680;45.642;13.756;2023-02-02T05:15:53;101693.56;;;6.11;100.00
35647;BME280;28680;45.642;13.756;2023-02-02T05:18:20;101696.22;;;6.09;100.00
35647;BME280;28680;45.642;13.756;2023-02-02T05:20:46;101702.16;;;6.13;100.00
35647;BME280;28680;45.642;13.756;2023-02-02T05:23:12;101708.16;;;6.15;100.00
35647;BME280;28680;45.642;13.756;2023-02-02T05:25:38;101704.53;;;6.17;100.00
35647;BME280;28680;45.642;13.756;2023-02-02T05:28:04;101696.78;;;6.16;100.00
35647;BME280;28680;45.642;13.756;2023-02-02T05:30:30;101705.53;;;6.15;100.00
35647;BME280;28680;45.642;13.756;2023-02-02T05:32:56;101706.16;;;6.20;100.00
35647;BME280;28680;45.642;13.756;2023-02-02T05:35:21;101702.66;;;6.21;100.00
35647;BME280;28680;45.642;13.756;2023-02-02T05:37:47;101703.38;;;6.24;100.00
35647;BME280;28680;45.642;13.756;2023-02-02T05:40:13;101711.25;;;6.23;100.00
35647;BME280;28680;45.642;13.756;2023-02-02T05:42:39;101708.38;;;6.29;100.00
35647;BME280;28680;45.642;13.756;2023-02-02T05:45:05;101713.78;;;6.24;100.00
35647;BME280;28680;45.642;13.756;2023-02-02T05:47:31;101717.41;;;6.22;100.00
35647;BME280;28680;45.642;13.756;2023-02-02T05:49:57;101712.09;;;6.23;100.00
35647;BME280;28680;45.642;13.756;2023-02-02T05:52:24;101717.19;;;6.27;100.00
35647;BME280;28680;45.642;13.756;2023-02-02T05:54:51;101731.13;;;6.25;100.00
35647;BME280;28680;45.642;13.756;2023-02-02T05:57:16;101721.56;;;6.26;100.00
35647;BME280;28680;45.642;13.756;2023-02-02T05:59:42;101724.00;;;6.29;100.00
35647;BME280;28680;45.642;13.756;2023-02-02T06:02:08;101731.97;;;6.26;100.00
35647;BME280;28680;45.642;13.756;2023-02-02T06:04:34;101726.56;;;6.31;100.00
35647;BME280;28680;45.642;13.756;2023-02-02T06:07:00;101716.84;;;6.34;100.00
35647;BME280;28680;45.642;13.756;2023-02-02T06:09:25;101715.56;;;6.24;100.00
35647;BME280;28680;45.642;13.756;2023-02-02T06:11:51;101727.66;;;6.25;100.00
35647;BME280;28680;45.642;13.756;2023-02-02T06:14:17;101726.91;;;6.23;100.00
35647;BME280;28680;45.642;13.756;2023-02-02T06:16:43;101698.59;;;6.34;100.00
35647;BME280;28680;45.642;13.756;2023-02-02T06:19:09;101727.00;;;6.20;100.00
35647;BME280;28680;45.642;13.756;2023-02-02T06:21:34;101717.47;;;6.20;100.00
35647;BME280;28680;45.642;13.756;2023-02-02T06:24:00;101728.13;;;6.14;100.00
35647;BME280;28680;45.642;13.756;2023-02-02T06:26:26;101743.38;;;6.03;100.00
35647;BME280;28680;45.642;13.756;2023-02-02T06:28:53;101735.31;;;6.09;100.00
35647;BME280;28680;45.642;13.756;2023-02-02T06:31:20;101739.06;;;6.03;100.00
35647;BME280;28680;45.642;13.756;2023-02-02T06:33:47;101744.19;;;6.05;100.00
35647;BME280;28680;45.642;13.756;2023-02-02T06:36:17;101725.81;;;6.08;100.00
35647;BME280;28680;45.642;13.756;2023-02-02T06:38:43;101736.38;;;6.05;100.00
35647;BME280;28680;45.642;13.756;2023-02-02T06:41:09;101758.34;;;5.99;100.00
35647;BME280;28680;45.642;13.756;2023-02-02T06:43:35;101751.16;;;6.04;100.00
35647;BME280;28680;45.642;13.756;2023-02-02T06:46:01;101727.91;;;6.00;100.00
35647;BME280;28680;45.642;13.756;2023-02-02T06:48:27;101754.03;;;5.98;100.00
35647;BME280;28680;45.642;13.756;2023-02-02T06:50:52;101734.03;;;5.99;100.00
35647;BME280;28680;45.642;13.756;2023-02-02T06:53:18;101762.03;;;5.94;100.00
35647;BME280;28680;45.642;13.756;2023-02-02T06:56:03;101758.69;;;5.90;100.00
35647;BME280;28680;45.642;13.756;2023-02-02T06:58:30;101766.06;;;5.80;100.00
35647;BME280;28680;45.642;13.756;2023-02-02T07:01:08;101765.72;;;5.68;100.00
35647;BME280;28680;45.642;13.756;2023-02-02T07:03:35;101777.03;;;5.66;100.00
35647;BME280;28680;45.642;13.756;2023-02-02T07:06:17;101766.06;;;5.80;100.00
35647;BME280;28680;45.642;13.756;2023-02-02T07:08:43;101787.81;;;5.79;100.00
35647;BME280;28680;45.642;13.756;2023-02-02T07:11:10;101775.22;;;5.89;100.00
35647;BME280;28680;45.642;13.756;2023-02-02T07:13:36;101768.34;;;5.88;100.00
35647;BME280;28680;45.642;13.756;2023-02-02T07:16:05;101773.47;;;5.90;100.00
35647;BME280;28680;45.642;13.756;2023-02-02T07:18:34;101773.34;;;5.93;100.00
35647;BME280;28680;45.642;13.756;2023-02-02T07:21:02;101777.78;;;5.91;100.00
35647;BME280;28680;45.642;13.756;2023-02-02T07:23:28;101777.97;;;5.86;100.00
35647;BME280;28680;45.642;13.756;2023-02-02T07:26:07;101782.09;;;5.92;100.00
35647;BME280;28680;45.642;13.756;2023-02-02T07:28:34;101779.34;;;5.95;100.00
35647;BME280;28680;45.642;13.756;2023-02-02T07:31:10;101780.09;;;5.98;100.00
35647;BME280;28680;45.642;13.756;2023-02-02T07:33:37;101780.22;;;5.95;100.00
35647;BME280;28680;45.642;13.756;2023-02-02T07:36:05;101786.69;;;6.07;100.00
35647;BME280;28680;45.642;13.756;2023-02-02T07:38:31;101785.31;;;6.19;100.00
35647;BME280;28680;45.642;13.756;2023-02-02T07:41:00;101777.66;;;6.14;100.00
35647;BME280;28680;45.642;13.756;2023-02-02T07:43:26;101781.91;;;6.17;100.00
35647;BME280;28680;45.642;13.756;2023-02-02T07:45:52;101786.72;;;6.26;100.00
35647;BME280;28680;45.642;13.756;2023-02-02T07:48:18;101791.41;;;6.38;100.00
35647;BME280;28680;45.642;13.756;2023-02-02T07:50:44;101799.91;;;6.62;100.00
35647;BME280;28680;45.642;13.756;2023-02-02T07:53:10;101798.31;;;6.79;100.00
35647;BME280;28680;45.642;13.756;2023-02-02T07:55:35;101797.53;;;6.77;100.00
35647;BME280;28680;45.642;13.756;2023-02-02T07:58:01;101795.06;;;6.93;100.00
35647;BME280;28680;45.642;13.756;2023-02-02T08:00:27;101800.19;;;7.13;100.00
35647;BME280;28680;45.642;13.756;2023-02-02T08:02:54;101797.50;;;7.34;100.00
35647;BME280;28680;45.642;13.756;2023-02-02T08:05:20;101797.50;;;7.34;100.00
35647;BME280;28680;45.642;13.756;2023-02-02T08:10:22;101805.13;;;7.56;100.00
35647;BME280;28680;45.642;13.756;2023-02-02T08:12:48;101808.00;;;7.86;100.00
35647;BME280;28680;45.642;13.756;2023-02-02T08:15:14;101799.56;;;7.98;100.00
35647;BME280;28680;45.642;13.756;2023-02-02T08:17:44;101798.63;;;7.99;100.00
35647;BME280;28680;45.642;13.756;2023-02-02T08:20:12;101794.69;;;8.08;100.00
35647;BME280;28680;45.642;13.756;2023-02-02T08:22:38;101800.38;;;8.16;100.00
35647;BME280;28680;45.642;13.756;2023-02-02T08:25:05;101800.59;;;8.29;100.00
35647;BME280;28680;45.642;13.756;2023-02-02T08:27:31;101797.38;;;8.42;100.00
35647;BME280;28680;45.642;13.756;2023-02-02T08:29:57;101798.53;;;8.36;100.00
35647;BME280;28680;45.642;13.756;2023-02-02T08:32:22;101797.59;;;8.54;100.00
35647;BME280;28680;45.642;13.756;2023-02-02T08:34:48;101802.19;;;8.83;100.00
35647;BME280;28680;45.642;13.756;2023-02-02T08:37:16;101796.81;;;9.17;100.00
35647;BME280;28680;45.642;13.756;2023-02-02T08:39:42;101788.59;;;9.40;100.00
35647;BME280;28680;45.642;13.756;2023-02-02T08:42:08;101783.31;;;9.55;100.00
35647;BME280;28680;45.642;13.756;2023-02-02T08:44:34;101779.72;;;9.72;100.00
35647;BME280;28680;45.642;13.756;2023-02-02T08:47:00;101776.69;;;9.94;100.00
35647;BME280;28680;45.642;13.756;2023-02-02T08:49:26;101776.63;;;10.10;100.00
35647;BME280;28680;45.642;13.756;2023-02-02T08:51:52;101783.31;;;10.30;100.00
35647;BME280;28680;45.642;13.756;2023-02-02T08:54:18;101778.44;;;10.67;100.00
35647;BME280;28680;45.642;13.756;2023-02-02T08:56:44;101787.97;;;10.83;100.00
35647;BME280;28680;45.642;13.756;2023-02-02T08:59:10;101787.38;;;11.06;100.00
35647;BME280;28680;45.642;13.756;2023-02-02T09:01:35;101785.66;;;11.20;100.00
35647;BME280;28680;45.642;13.756;2023-02-02T09:04:07;101791.00;;;11.45;100.00
35647;BME280;28680;45.642;13.756;2023-02-02T09:06:39;101778.31;;;11.52;100.00
35647;BME280;28680;45.642;13.756;2023-02-02T09:09:08;101775.38;;;11.69;100.00
35647;BME280;28680;45.642;13.756;2023-02-02T09:11:35;101787.28;;;11.75;100.00
35647;BME280;28680;45.642;13.756;2023-02-02T09:14:01;101784.69;;;11.88;100.00
35647;BME280;28680;45.642;13.756;2023-02-02T09:16:28;101779.13;;;11.93;100.00
35647;BME280;28680;45.642;13.756;2023-02-02T09:18:55;101788.00;;;12.17;100.00
35647;BME280;28680;45.642;13.756;2023-02-02T09:21:21;101795.91;;;12.43;100.00
35647;BME280;28680;45.642;13.756;2023-02-02T09:23:49;101807.56;;;12.64;100.00
35647;BME280;28680;45.642;13.756;2023-02-02T09:26:18;101808.81;;;12.72;100.00
35647;BME280;28680;45.642;13.756;2023-02-02T09:28:56;101805.97;;;12.75;100.00
35647;BME280;28680;45.642;13.756;2023-02-02T09:31:23;101807.44;;;12.79;100.00
35647;BME280;28680;45.642;13.756;2023-02-02T09:33:50;101811.63;;;12.81;100.00
35647;BME280;28680;45.642;13.756;2023-02-02T09:36:19;101817.13;;;12.91;100.00
35647;BME280;28680;45.642;13.756;2023-02-02T09:38:46;101815.03;;;13.20;100.00
35647;BME280;28680;45.642;13.756;2023-02-02T09:47:23;101832.47;;;13.47;100.00
35647;BME280;28680;45.642;13.756;2023-02-02T09:55:54;101832.22;;;14.21;100.00
35647;BME280;28680;45.642;13.756;2023-02-02T09:58:35;101819.75;;;14.34;100.00
35647;BME280;28680;45.642;13.756;2023-02-02T10:01:11;101826.38;;;14.51;100.00
35647;BME280;28680;45.642;13.756;2023-02-02T10:04:13;101825.81;;;14.59;100.00
35647;BME280;28680;45.642;13.756;2023-02-02T10:06:46;101822.34;;;14.81;100.00
35647;BME280;28680;45.642;13.756;2023-02-02T10:09:42;101827.41;;;14.73;100.00
35647;BME280;28680;45.642;13.756;2023-02-02T10:12:51;101825.16;;;15.12;100.00
35647;BME280;28680;45.642;13.756;2023-02-02T10:15:32;101822.91;;;15.51;100.00
35647;BME280;28680;45.642;13.756;2023-02-02T10:18:16;101817.16;;;15.67;100.00
35647;BME280;28680;45.642;13.756;2023-02-02T10:20:59;101828.66;;;15.56;100.00
35647;BME280;28680;45.642;13.756;2023-02-02T10:23:38;101821.09;;;15.84;100.00
35647;BME280;28680;45.642;13.756;2023-02-02T10:26:36;101825.25;;;15.97;100.00
35647;BME280;28680;45.642;13.756;2023-02-02T10:37:31;101828.44;;;16.12;100.00
35647;BME280;28680;45.642;13.756;2023-02-02T10:40:16;101814.38;;;16.22;100.00
35647;BME280;28680;45.642;13.756;2023-02-02T10:45:40;101816.53;;;16.28;100.00
35647;BME280;28680;45.642;13.756;2023-02-02T10:48:30;101789.41;;;16.45;100.00
35647;BME280;28680;45.642;13.756;2023-02-02T10:51:06;101805.09;;;16.58;100.00
35647;BME280;28680;45.642;13.756;2023-02-02T10:53:36;101797.91;;;16.80;100.00
35647;BME280;28680;45.642;13.756;2023-02-02T10:56:10;101800.69;;;16.78;100.00
35647;BME280;28680;45.642;13.756;2023-02-02T11:01:14;101799.91;;;16.87;100.00
35647;BME280;28680;45.642;13.756;2023-02-02T11:03:42;101793.34;;;17.01;100.00
35647;BME280;28680;45.642;13.756;2023-02-02T11:06:12;101786.97;;;17.13;100.00
35647;BME280;28680;45.642;13.756;2023-02-02T11:09:19;101772.88;;;17.32;100.00
35647;BME280;28680;45.642;13.756;2023-02-02T11:11:48;101772.47;;;17.57;100.00
35647;BME280;28680;45.642;13.756;2023-02-02T11:14:40;101767.72;;;17.60;100.00
35647;BME280;28680;45.642;13.756;2023-02-02T11:17:23;101759.16;;;17.76;100.00
35647;BME280;28680;45.642;13.756;2023-02-02T11:19:49;101761.00;;;17.76;100.00
35647;BME280;28680;45.642;13.756;2023-02-02T11:22:34;101761.97;;;17.84;100.00
35647;BME280;28680;45.642;13.756;2023-02-02T11:25:30;101765.16;;;18.07;100.00
35647;BME280;28680;45.642;13.756;2023-02-02T11:28:00;101754.31;;;18.28;100.00
35647;BME280;28680;45.642;13.756;2023-02-02T11:30:32;101757.09;;;18.27;100.00
35647;BME280;28680;45.642;13.756;2023-02-02T11:32:59;101757.41;;;18.51;100.00
35647;BME280;28680;45.642;13.756;2023-02-02T11:35:26;101758.88;;;18.36;100.00
35647;BME280;28680;45.642;13.756;2023-02-02T11:38:13;101759.66;;;18.46;100.00
35647;BME280;28680;45.642;13.756;2023-02-02T11:40:44;101750.06;;;18.63;100.00
35647;BME280;28680;45.642;13.756;2023-02-02T11:46:05;101746.19;;;18.85;97.38
35647;BME280;28680;45.642;13.756;2023-02-02T11:48:38;101745.28;;;18.67;98.89
35647;BME280;28680;45.642;13.756;2023-02-02T11:51:05;101738.50;;;18.82;93.12
35647;BME280;28680;45.642;13.756;2023-02-02T11:53:45;101745.28;;;18.67;97.11
35647;BME280;28680;45.642;13.756;2023-02-02T11:56:24;101734.19;;;18.81;97.97
35647;BME280;28680;45.642;13.756;2023-02-02T11:58:56;101732.97;;;18.94;97.12
35647;BME280;28680;45.642;13.756;2023-02-02T12:01:36;101724.41;;;19.00;95.38
35647;BME280;28680;45.642;13.756;2023-02-02T12:06:43;101714.28;;;19.21;88.96
35647;BME280;28680;45.642;13.756;2023-02-02T12:09:17;101712.44;;;19.22;91.66
35647;BME280;28680;45.642;13.756;2023-02-02T12:12:10;101701.47;;;19.43;87.78
35647;BME280;28680;45.642;13.756;2023-02-02T12:17:45;101701.72;;;19.32;88.41
35647;BME280;28680;45.642;13.756;2023-02-02T12:23:33;101692.88;;;19.49;95.66
35647;BME280;28680;45.642;13.756;2023-02-02T12:29:09;101690.16;;;19.67;86.63
35647;BME280;28680;45.642;13.756;2023-02-02T12:34:46;101670.38;;;19.70;81.33
35647;BME280;28680;45.642;13.756;2023-02-02T12:38:02;101670.59;;;19.50;82.82
35647;BME280;28680;45.642;13.756;2023-02-02T12:43:47;101678.91;;;19.73;83.85
35647;BME280;28680;45.642;13.756;2023-02-02T13:03:44;101687.81;;;19.90;88.55
35647;BME280;28680;45.642;13.756;2023-02-02T13:10:05;101675.94;;;19.76;87.25
35647;BME280;28680;45.642;13.756;2023-02-02T13:13:03;101679.44;;;20.11;83.17
35647;BME280;28680;45.642;13.756;2023-02-02T13:15:44;101674.31;;;19.83;85.43
35647;BME280;28680;45.642;13.756;2023-02-02T13:18:22;101669.38;;;19.71;88.01
35647;BME280;28680;45.642;13.756;2023-02-02T13:21:10;101673.50;;;19.83;88.67
35647;BME280;28680;45.642;13.756;2023-02-02T13:23:59;101665.63;;;19.55;88.41
35647;BME280;28680;45.642;13.756;2023-02-02T13:26:38;101667.78;;;19.78;85.90
35647;BME280;28680;45.642;13.756;2023-02-02T13:32:34;101659.78;;;19.52;88.17
35647;BME280;28680;45.642;13.756;2023-02-02T13:35:30;101666.03;;;19.68;87.07
35647;BME280;28680;45.642;13.756;2023-02-02T13:38:24;101663.59;;;19.75;87.39
35647;BME280;28680;45.642;13.756;2023-02-02T13:40:53;101659.72;;;19.70;85.71
35647;BME280;28680;45.642;13.756;2023-02-02T13:43:38;101661.91;;;20.00;85.46
35647;BME280;28680;45.642;13.756;2023-02-02T13:49:24;101667.03;;;19.67;88.07
35647;BME280;28680;45.642;13.756;2023-02-02T13:58:36;101666.81;;;18.91;95.42
35647;BME280;28680;45.642;13.756;2023-02-02T14:01:09;101668.91;;;19.05;98.18
35647;BME280;28680;45.642;13.756;2023-02-02T14:03:44;101663.91;;;19.46;93.33
35647;BME280;28680;45.642;13.756;2023-02-02T14:06:26;101669.75;;;19.05;97.86
35647;BME280;28680;45.642;13.756;2023-02-02T14:09:00;101669.47;;;19.35;96.41
35647;BME280;28680;45.642;13.756;2023-02-02T14:11:34;101672.72;;;19.02;94.66
35647;BME280;28680;45.642;13.756;2023-02-02T14:14:17;101678.66;;;18.23;100.00
35647;BME280;28680;45.642;13.756;2023-02-02T14:19:49;101682.53;;;16.35;100.00
35647;BME280;28680;45.642;13.756;2023-02-02T14:22:38;101685.91;;;16.37;100.00
35647;BME280;28680;45.642;13.756;2023-02-02T14:28:10;101669.75;;;15.57;100.00
35647;BME280;28680;45.642;13.756;2023-02-02T14:30:38;101676.91;;;15.67;100.00
35647;BME280;28680;45.642;13.756;2023-02-02T14:38:31;101680.59;;;15.12;100.00
35647;BME280;28680;45.642;13.756;2023-02-02T14:44:17;101682.69;;;14.97;100.00
35647;BME280;28680;45.642;13.756;2023-02-02T14:46:43;101685.84;;;15.66;100.00
35647;BME280;28680;45.642;13.756;2023-02-02T14:49:19;101690.59;;;15.93;100.00
35647;BME280;28680;45.642;13.756;2023-02-02T14:51:59;101682.16;;;15.36;100.00
35647;BME280;28680;45.642;13.756;2023-02-02T14:54:39;101674.16;;;15.68;100.00
35647;BME280;28680;45.642;13.756;2023-02-02T14:57:25;101682.09;;;15.89;100.00
35647;BME280;28680;45.642;13.756;2023-02-02T14:59:52;101674.19;;;16.30;100.00
35647;BME280;28680;45.642;13.756;2023-02-02T15:13:23;101680.00;;;14.76;100.00